createdAt,value
2023-03-20T00:01:30.935Z,93.93
2023-03-20T00:03:57.845Z,92.05
2023-03-20T00:06:26.921Z,93.35
2023-03-20T00:08:55.294Z,93.47
2023-03-20T00:11:30.885Z,92.28
2023-03-20T00:14:06.395Z,93.57
2023-03-20T00:16:35.575Z,93.28
2023-03-20T00:19:03.273Z,92.95
2023-03-20T00:21:30.735Z,93.20
2023-03-20T00:23:57.730Z,93.82
2023-03-20T00:26:33.558Z,93.45
2023-03-20T00:29:01.779Z,93.32
2023-03-20T00:31:35.405Z,92.47
2023-03-20T00:34:05.442Z,94.18
2023-03-20T00:36:33.412Z,94.18
2023-03-20T00:39:00.209Z,94.72
2023-03-20T00:41:38.773Z,94.32
2023-03-20T00:44:29.813Z,94.78
2023-03-20T00:47:04.167Z,94.15
2023-03-20T00:49:35.445Z,93.75
2023-03-20T00:52:03.449Z,94.57
2023-03-20T00:54:31.205Z,96.18
2023-03-20T00:57:05.544Z,94.88
2023-03-20T00:59:42.274Z,96.88
2023-03-20T01:02:11.652Z,94.82
2023-03-20T01:04:41.433Z,93.78
2023-03-20T01:07:13.858Z,94.55
2023-03-20T01:09:40.558Z,93.88
2023-03-20T01:12:10.369Z,93.72
2023-03-20T01:14:37.008Z,94.50
2023-03-20T01:17:03.711Z,94.90
2023-03-20T01:19:30.454Z,93.82
2023-03-20T01:21:57.081Z,96.47
2023-03-20T01:24:23.912Z,94.35
2023-03-20T01:26:52.619Z,95.82
2023-03-20T01:29:22.051Z,96.47
2023-03-20T01:31:49.903Z,100.47
2023-03-20T01:34:16.712Z,95.03
2023-03-20T01:36:56.986Z,94.57
2023-03-20T01:39:34.694Z,102.18
2023-03-20T01:42:03.208Z,94.30
2023-03-20T01:44:32.602Z,96.28
2023-03-20T01:47:00.204Z,98.00
2023-03-20T01:49:28.206Z,93.82
2023-03-20T01:51:56.986Z,94.70
2023-03-20T01:54:29.695Z,95.22
2023-03-20T01:57:17.169Z,95.32
2023-03-20T02:00:16.707Z,96.32
2023-03-20T02:02:46.317Z,94.88
2023-03-20T02:05:15.690Z,96.65
2023-03-20T02:07:45.784Z,97.03
2023-03-20T02:10:15.250Z,99.18
2023-03-20T02:12:42.986Z,100.00
2023-03-20T02:15:11.727Z,102.25
2023-03-20T02:17:38.404Z,102.00
2023-03-20T02:20:15.231Z,97.80
2023-03-20T02:23:02.100Z,96.20
2023-03-20T02:25:31.718Z,104.28
2023-03-20T02:28:22.581Z,97.05
2023-03-20T02:31:01.849Z,101.55
2023-03-20T02:33:31.300Z,102.97
2023-03-20T02:36:35.449Z,98.53
2023-03-20T02:39:27.693Z,98.30
2023-03-20T02:42:28.623Z,98.97
2023-03-20T02:45:13.541Z,98.78
2023-03-20T02:47:52.649Z,100.65
2023-03-20T02:50:35.387Z,103.35
2023-03-20T02:53:39.816Z,102.35
2023-03-20T02:56:09.188Z,100.15
2023-03-20T02:59:03.600Z,100.45
2023-03-20T03:01:38.791Z,104.30
2023-03-20T03:04:16.420Z,100.68
2023-03-20T03:06:46.095Z,103.97
2023-03-20T03:09:36.649Z,103.22
2023-03-20T03:12:10.241Z,102.85
2023-03-20T03:14:48.211Z,101.22
2023-03-20T03:17:17.705Z,103.80
2023-03-20T03:19:52.643Z,104.15
2023-03-20T03:22:21.416Z,101.75
2023-03-20T03:24:51.938Z,101.07
2023-03-20T03:28:05.092Z,103.70
2023-03-20T03:30:36.250Z,103.80
2023-03-20T03:33:17.142Z,102.97
2023-03-20T03:35:45.373Z,103.53
2023-03-20T03:38:28.703Z,104.60
2023-03-20T03:41:07.481Z,103.13
2023-03-20T03:43:45.549Z,100.60
2023-03-20T03:46:53.387Z,105.07
2023-03-20T03:49:32.002Z,107.60
2023-03-20T03:52:06.682Z,102.32
2023-03-20T03:54:42.306Z,110.45
2023-03-20T03:57:12.330Z,103.38
2023-03-20T03:59:43.563Z,103.63
2023-03-20T04:02:11.060Z,105.55
2023-03-20T04:04:43.297Z,102.97
2023-03-20T04:07:10.441Z,103.63
2023-03-20T04:09:37.391Z,109.05
2023-03-20T04:12:04.217Z,106.30
2023-03-20T04:14:31.261Z,107.85
2023-03-20T04:16:57.934Z,116.45
2023-03-20T04:19:24.620Z,108.30
2023-03-20T04:21:51.295Z,107.35
2023-03-20T04:24:18.095Z,103.70
2023-03-20T04:26:44.727Z,106.10
2023-03-20T04:29:11.399Z,106.53
2023-03-20T04:31:38.141Z,110.80
2023-03-20T04:34:05.004Z,105.85
2023-03-20T04:36:31.630Z,105.95
2023-03-20T04:38:58.314Z,105.50
2023-03-20T04:41:25.135Z,103.25
2023-03-20T04:43:51.766Z,107.35
2023-03-20T04:46:18.866Z,102.43
2023-03-20T04:48:45.605Z,103.38
2023-03-20T04:51:12.269Z,103.28
2023-03-20T04:53:38.940Z,105.47
2023-03-20T04:56:06.044Z,102.22
2023-03-20T04:58:33.303Z,103.93
2023-03-20T05:00:59.982Z,103.28
2023-03-20T05:03:27.680Z,104.30
2023-03-20T05:05:54.382Z,105.45
2023-03-20T05:08:21.113Z,106.45
2023-03-20T05:10:47.759Z,105.75
2023-03-20T05:13:14.416Z,104.43
2023-03-20T05:15:41.069Z,102.43
2023-03-20T05:18:08.168Z,101.53
2023-03-20T05:20:34.864Z,108.97
2023-03-20T05:23:01.688Z,104.93
2023-03-20T05:25:28.437Z,103.43
2023-03-20T05:27:55.341Z,103.80
2023-03-20T05:30:22.112Z,103.65
2023-03-20T05:32:52.731Z,104.63
2023-03-20T05:35:19.542Z,105.68
2023-03-20T05:37:46.194Z,104.38
2023-03-20T05:40:14.794Z,105.32
2023-03-20T05:42:41.817Z,106.70
2023-03-20T05:45:09.050Z,106.15
2023-03-20T05:47:35.694Z,103.82
2023-03-20T05:50:03.661Z,103.68
2023-03-20T05:52:30.366Z,108.72
2023-03-20T05:54:57.027Z,103.60
2023-03-20T05:57:23.686Z,103.80
2023-03-20T05:59:50.426Z,105.18
2023-03-20T06:02:17.308Z,103.43
2023-03-20T06:04:44.179Z,106.43
2023-03-20T06:07:11.018Z,106.78
2023-03-20T06:09:37.717Z,106.18
2023-03-20T06:12:04.477Z,102.43
2023-03-20T06:14:31.240Z,107.57
2023-03-20T06:16:58.017Z,103.40
2023-03-20T06:19:24.866Z,104.90
2023-03-20T06:21:51.569Z,105.75
2023-03-20T06:24:18.379Z,106.60
2023-03-20T06:26:45.141Z,107.65
2023-03-20T06:29:11.807Z,108.85
2023-03-20T06:31:38.575Z,102.97
2023-03-20T06:34:05.392Z,105.60
2023-03-20T06:36:32.236Z,104.40
2023-03-20T06:38:58.988Z,104.97
2023-03-20T06:41:34.178Z,108.65
2023-03-20T06:44:02.277Z,105.57
2023-03-20T06:46:29.023Z,106.68
2023-03-20T06:48:55.877Z,105.07
2023-03-20T06:51:22.567Z,108.38
2023-03-20T06:53:49.224Z,104.93
2023-03-20T06:56:16.818Z,104.88
2023-03-20T06:58:43.453Z,109.93
2023-03-20T07:01:13.131Z,108.82
2023-03-20T07:03:41.174Z,107.28
2023-03-20T07:06:08.426Z,111.75
2023-03-20T07:08:35.353Z,109.72
2023-03-20T07:11:04.159Z,109.28
2023-03-20T07:13:32.482Z,105.93
2023-03-20T07:16:04.746Z,110.43
2023-03-20T07:18:32.283Z,110.95
2023-03-20T07:21:02.965Z,108.60
2023-03-20T07:23:30.781Z,107.78
2023-03-20T07:25:58.804Z,112.85
2023-03-20T07:28:25.451Z,110.53
2023-03-20T07:30:52.404Z,111.25
2023-03-20T07:33:19.466Z,107.90
2023-03-20T07:35:46.465Z,113.38
2023-03-20T07:38:13.112Z,113.18
2023-03-20T07:40:39.761Z,109.15
2023-03-20T07:43:06.648Z,111.15
2023-03-20T07:45:33.353Z,112.30
2023-03-20T07:48:00.435Z,113.60
2023-03-20T07:50:27.159Z,119.40
2023-03-20T07:52:53.755Z,112.80
2023-03-20T07:55:20.411Z,111.93
2023-03-20T07:57:49.582Z,115.22
2023-03-20T08:00:17.309Z,119.65
2023-03-20T08:02:44.292Z,114.32
2023-03-20T08:05:11.216Z,116.90
2023-03-20T08:07:37.849Z,113.57
2023-03-20T08:10:04.937Z,119.40
2023-03-20T08:12:31.569Z,119.60
2023-03-20T08:14:58.281Z,116.60
2023-03-20T08:17:25.411Z,119.88
2023-03-20T08:19:52.105Z,118.50
2023-03-20T08:22:18.761Z,121.38
2023-03-20T08:24:45.494Z,118.93
2023-03-20T08:27:12.149Z,118.25
2023-03-20T08:29:38.907Z,116.22
2023-03-20T08:32:06.119Z,115.25
2023-03-20T08:34:33.569Z,118.90
2023-03-20T08:37:02.735Z,113.50
2023-03-20T08:39:29.419Z,121.85
2023-03-20T08:41:56.103Z,119.05
2023-03-20T08:44:22.727Z,121.00
2023-03-20T08:46:49.411Z,132.85
2023-03-20T08:49:16.085Z,126.03
2023-03-20T08:51:43.066Z,121.00
2023-03-20T08:54:09.711Z,133.13
2023-03-20T08:56:36.384Z,130.15
2023-03-20T08:59:03.636Z,128.40
2023-03-20T09:01:46.082Z,133.88
2023-03-20T09:04:15.265Z,133.55
2023-03-20T09:06:42.239Z,134.63
2023-03-20T09:09:08.902Z,138.77
2023-03-20T09:11:37.418Z,137.20
2023-03-20T09:14:04.054Z,133.75
2023-03-20T09:16:30.837Z,140.90
2023-03-20T09:18:57.542Z,138.07
2023-03-20T09:21:24.190Z,142.32
2023-03-20T09:23:50.929Z,148.95
2023-03-20T09:26:17.785Z,142.15
2023-03-20T09:28:44.396Z,142.80
2023-03-20T09:31:12.038Z,142.38
2023-03-20T09:33:38.731Z,151.10
2023-03-20T09:36:06.258Z,149.90
2023-03-20T09:38:32.972Z,152.48
2023-03-20T09:41:01.434Z,136.02
2023-03-20T09:43:47.029Z,133.18
2023-03-20T09:46:49.643Z,134.15
2023-03-20T09:49:16.443Z,126.47
2023-03-20T09:52:01.496Z,118.53
2023-03-20T09:54:29.416Z,110.45
2023-03-20T09:56:57.796Z,110.35
2023-03-20T09:59:27.073Z,106.70
2023-03-20T10:02:06.425Z,107.18
2023-03-20T10:04:34.795Z,97.90
2023-03-20T10:07:04.626Z,99.53
2023-03-20T10:09:32.312Z,97.13
2023-03-20T10:12:18.195Z,102.18
2023-03-20T10:15:00.001Z,101.68
2023-03-20T10:17:56.394Z,101.25
2023-03-20T10:20:37.911Z,99.72
2023-03-20T10:23:19.233Z,98.50
2023-03-20T10:25:53.792Z,103.05
2023-03-20T10:28:26.987Z,108.32
2023-03-20T10:31:24.385Z,103.45
2023-03-20T10:34:28.924Z,103.80
2023-03-20T10:37:14.826Z,104.22
2023-03-20T10:39:54.431Z,111.20
2023-03-20T10:42:27.662Z,109.35
2023-03-20T10:45:02.119Z,107.07
2023-03-20T10:47:33.513Z,108.95
2023-03-20T10:50:11.340Z,108.22
2023-03-20T10:52:41.436Z,105.55
2023-03-20T10:55:14.444Z,103.80
2023-03-20T10:57:48.292Z,101.97
2023-03-20T11:00:22.285Z,107.55
2023-03-20T11:02:49.333Z,106.35
2023-03-20T11:05:24.937Z,101.57
2023-03-20T11:08:01.898Z,106.47
2023-03-20T11:10:33.775Z,107.10
2023-03-20T11:13:22.853Z,102.93
2023-03-20T11:15:53.416Z,103.57
2023-03-20T11:18:20.665Z,102.82
2023-03-20T11:20:54.767Z,103.05
2023-03-20T11:23:31.344Z,105.47
2023-03-20T11:26:08.027Z,104.38
2023-03-20T11:28:37.290Z,102.53
2023-03-20T11:31:30.016Z,104.78
2023-03-20T11:34:14.884Z,102.00
2023-03-20T11:37:10.412Z,107.35
2023-03-20T11:39:39.866Z,101.95
2023-03-20T11:42:23.358Z,100.32
2023-03-20T11:44:58.349Z,102.57
2023-03-20T11:47:27.815Z,99.28
2023-03-20T11:49:57.749Z,98.18
2023-03-20T11:52:34.896Z,96.22
2023-03-20T11:55:04.964Z,101.65
2023-03-20T11:57:37.969Z,97.68
2023-03-20T12:00:20.747Z,96.80
2023-03-20T12:02:47.675Z,94.90
2023-03-20T12:05:36.324Z,92.45
2023-03-20T12:08:16.316Z,93.93
2023-03-20T12:10:46.945Z,91.25
2023-03-20T12:13:17.154Z,92.97
2023-03-20T12:15:55.638Z,91.63
2023-03-20T12:18:32.856Z,89.97
2023-03-20T12:21:21.435Z,89.68
2023-03-20T12:23:54.899Z,89.55
2023-03-20T12:26:28.124Z,88.03
2023-03-20T12:29:18.665Z,88.35
2023-03-20T12:32:03.230Z,89.45
2023-03-20T12:34:32.985Z,88.53
2023-03-20T12:37:00.263Z,87.22
2023-03-20T12:39:41.401Z,87.50
2023-03-20T12:42:27.674Z,88.43
2023-03-20T12:45:11.328Z,88.47
2023-03-20T12:47:43.981Z,89.30
2023-03-20T12:50:35.550Z,88.63
2023-03-20T12:53:35.137Z,90.97
2023-03-20T12:56:27.808Z,88.82
2023-03-20T12:59:26.404Z,89.05
2023-03-20T13:01:59.122Z,90.28
2023-03-20T13:04:56.537Z,89.68
2023-03-20T13:07:56.321Z,91.97
2023-03-20T13:10:28.783Z,90.90
2023-03-20T13:13:05.497Z,90.07
2023-03-20T13:16:04.746Z,91.00
2023-03-20T13:18:44.943Z,88.85
2023-03-20T13:21:24.402Z,90.22
2023-03-20T13:24:15.604Z,89.20
2023-03-20T13:26:56.109Z,89.43
2023-03-20T13:29:41.852Z,91.25
2023-03-20T13:32:17.493Z,91.32
2023-03-20T13:35:02.101Z,91.32
2023-03-20T13:37:35.722Z,92.93
2023-03-20T13:40:21.125Z,94.47
2023-03-20T13:43:04.248Z,89.47
2023-03-20T13:45:36.538Z,90.82
2023-03-20T13:48:07.940Z,93.75
2023-03-20T13:51:02.208Z,94.13
2023-03-20T13:53:33.308Z,92.18
2023-03-20T13:56:18.618Z,98.88
2023-03-20T13:59:11.172Z,90.05
2023-03-20T14:02:05.079Z,92.10
2023-03-20T14:04:32.508Z,91.82
2023-03-20T14:06:59.770Z,90.80
2023-03-20T14:09:28.065Z,94.78
2023-03-20T14:11:58.540Z,92.82
2023-03-20T14:14:29.578Z,91.78
2023-03-20T14:17:06.508Z,91.57
2023-03-20T14:19:36.491Z,92.20
2023-03-20T14:22:03.584Z,92.28
2023-03-20T14:24:33.944Z,91.13
2023-03-20T14:27:01.460Z,90.72
2023-03-20T14:29:37.535Z,95.15
2023-03-20T14:32:13.423Z,91.85
2023-03-20T14:34:59.734Z,93.22
2023-03-20T14:37:38.393Z,93.07
2023-03-20T14:40:17.234Z,91.93
2023-03-20T14:43:00.418Z,92.10
2023-03-20T14:45:44.773Z,92.20
2023-03-20T14:48:37.757Z,92.68
2023-03-20T14:51:24.293Z,90.93
2023-03-20T14:54:18.228Z,91.43
2023-03-20T14:56:44.974Z,92.47
2023-03-20T14:59:12.544Z,92.65
2023-03-20T15:01:39.201Z,92.32
2023-03-20T15:04:07.765Z,91.07
2023-03-20T15:06:42.333Z,91.93
2023-03-20T15:09:11.139Z,90.38
2023-03-20T15:11:38.535Z,91.07
2023-03-20T15:14:07.753Z,92.05
2023-03-20T15:16:37.554Z,90.65
2023-03-20T15:19:19.780Z,89.75
2023-03-20T15:21:48.074Z,90.78
2023-03-20T15:24:26.096Z,90.68
2023-03-20T15:27:01.195Z,93.68
2023-03-20T15:29:29.654Z,90.50
2023-03-20T15:32:15.474Z,91.45
2023-03-20T15:34:44.033Z,89.90
2023-03-20T15:37:20.777Z,89.72
2023-03-20T15:39:51.620Z,89.95
2023-03-20T15:42:21.941Z,90.35
2023-03-20T15:44:52.155Z,89.82
2023-03-20T15:47:21.980Z,91.68
2023-03-20T15:49:55.322Z,92.30
2023-03-20T15:52:42.864Z,91.05
2023-03-20T15:55:17.690Z,90.10
2023-03-20T15:57:47.163Z,89.28
2023-03-20T16:00:32.572Z,95.93
2023-03-20T16:03:01.636Z,90.38
2023-03-20T16:05:30.046Z,91.88
2023-03-20T16:07:56.723Z,92.30
2023-03-20T16:10:36.062Z,91.03
2023-03-20T16:13:04.350Z,93.38
2023-03-20T16:15:32.803Z,91.15
2023-03-20T16:18:02.351Z,90.93
2023-03-20T16:20:37.612Z,90.65
2023-03-20T16:23:07.088Z,91.88
2023-03-20T16:25:35.961Z,90.80
2023-03-20T16:28:07.054Z,91.28
2023-03-20T16:30:35.166Z,91.07
2023-03-20T16:33:07.329Z,90.65
2023-03-20T16:35:44.961Z,90.18
2023-03-20T16:38:25.292Z,92.25
2023-03-20T16:41:15.980Z,95.10
2023-03-20T16:43:48.799Z,91.68
2023-03-20T16:46:26.390Z,92.60
2023-03-20T16:49:29.519Z,89.88
2023-03-20T16:52:01.960Z,91.05
2023-03-20T16:54:36.048Z,90.18
2023-03-20T16:57:05.947Z,93.45
2023-03-20T16:59:32.586Z,94.03
2023-03-20T17:01:59.982Z,92.03
2023-03-20T17:04:41.349Z,90.75
2023-03-20T17:07:15.332Z,90.03
2023-03-20T17:10:16.803Z,95.18
2023-03-20T17:12:46.625Z,89.82
2023-03-20T17:15:18.921Z,92.63
2023-03-20T17:17:45.672Z,89.85
2023-03-20T17:20:24.795Z,92.32
2023-03-20T17:22:52.161Z,93.60
2023-03-20T17:25:20.042Z,91.50
2023-03-20T17:27:47.035Z,92.97
2023-03-20T17:30:20.293Z,93.20
2023-03-20T17:32:47.176Z,91.40
2023-03-20T17:35:14.005Z,91.57
2023-03-20T17:37:41.204Z,91.47
2023-03-20T17:40:12.970Z,91.07
2023-03-20T17:42:39.694Z,93.82
2023-03-20T17:45:06.867Z,92.03
2023-03-20T17:47:33.576Z,91.35
2023-03-20T17:50:00.273Z,91.95
2023-03-20T17:52:28.413Z,91.63
2023-03-20T17:54:55.118Z,92.60
2023-03-20T17:57:32.708Z,92.40
2023-03-20T18:00:00.724Z,93.03
2023-03-20T18:02:27.653Z,93.95
2023-03-20T18:04:54.433Z,91.15
2023-03-20T18:07:21.265Z,95.75
2023-03-20T18:09:49.252Z,92.93
2023-03-20T18:12:18.331Z,92.30
2023-03-20T18:14:46.115Z,92.40
2023-03-20T18:17:14.336Z,94.97
2023-03-20T18:19:42.281Z,92.88
2023-03-20T18:22:09.303Z,94.85
2023-03-20T18:24:36.568Z,93.57
2023-03-20T18:27:03.560Z,92.47
2023-03-20T18:29:30.232Z,91.72
2023-03-20T18:31:56.948Z,98.57
2023-03-20T18:34:23.616Z,90.93
2023-03-20T18:36:51.785Z,92.55
2023-03-20T18:39:24.203Z,92.70
2023-03-20T18:41:51.835Z,93.18
2023-03-20T18:44:19.120Z,91.97
2023-03-20T18:46:45.964Z,92.85
2023-03-20T18:49:17.489Z,91.22
2023-03-20T18:51:45.133Z,101.20
2023-03-20T18:54:11.948Z,90.68
2023-03-20T18:56:38.809Z,90.68
2023-03-20T18:59:07.804Z,94.38
2023-03-20T19:01:35.806Z,94.03
2023-03-20T19:04:02.645Z,93.55
2023-03-20T19:06:32.544Z,98.47
2023-03-20T19:09:02.690Z,95.38
2023-03-20T19:11:29.341Z,91.63
2023-03-20T19:13:56.204Z,94.25
2023-03-20T19:16:27.322Z,93.57
2023-03-20T19:18:55.908Z,90.60
2023-03-20T19:21:26.156Z,99.13
2023-03-20T19:23:54.748Z,95.88
2023-03-20T19:26:22.332Z,95.03
2023-03-20T19:28:48.949Z,92.82
2023-03-20T19:31:16.216Z,92.95
2023-03-20T19:33:43.347Z,95.53
2023-03-20T19:36:37.183Z,98.88
2023-03-20T19:39:06.317Z,92.15
2023-03-20T19:41:33.035Z,92.60
2023-03-20T19:44:01.377Z,91.72
2023-03-20T19:46:39.680Z,96.28
2023-03-20T19:49:17.878Z,92.20
2023-03-20T19:51:45.085Z,92.45
2023-03-20T19:54:11.713Z,94.57
2023-03-20T19:56:38.396Z,95.22
2023-03-20T19:59:05.906Z,92.75
2023-03-20T20:01:32.638Z,100.07
2023-03-20T20:03:59.422Z,95.90
2023-03-20T20:06:31.350Z,93.40
2023-03-20T20:08:59.544Z,92.95
2023-03-20T20:11:26.245Z,93.35
2023-03-20T20:14:10.012Z,91.45
2023-03-20T20:16:39.933Z,92.03
2023-03-20T20:19:07.297Z,97.18
2023-03-20T20:24:21.249Z,95.60
2023-03-20T20:26:55.484Z,95.97
2023-03-20T20:29:29.936Z,93.43
2023-03-20T20:31:56.749Z,93.30
2023-03-20T20:39:58.766Z,96.72
2023-03-20T20:42:25.575Z,94.95
2023-03-20T20:44:52.394Z,96.38
2023-03-20T20:47:19.105Z,97.30
2023-03-20T20:49:47.495Z,101.10
2023-03-20T20:52:15.688Z,93.88
2023-03-20T20:54:42.588Z,95.13
2023-03-20T20:57:10.797Z,99.05
2023-03-20T20:59:38.126Z,96.43
2023-03-20T21:02:10.676Z,94.88
2023-03-20T21:04:42.089Z,93.18
2023-03-20T21:07:13.152Z,94.85
2023-03-20T21:09:40.373Z,96.68
2023-03-20T21:12:08.550Z,92.25
2023-03-20T21:14:35.691Z,93.22
2023-03-20T21:17:03.647Z,95.97
2023-03-20T21:19:34.635Z,93.60
2023-03-20T21:22:01.520Z,96.38
2023-03-20T21:24:33.181Z,95.25
2023-03-20T21:27:01.449Z,96.10
2023-03-20T21:29:28.069Z,99.20
2023-03-20T21:31:54.762Z,100.97
2023-03-20T21:34:21.861Z,91.55
2023-03-20T21:36:49.377Z,101.15
2023-03-20T21:39:17.545Z,92.28
2023-03-20T21:41:45.246Z,95.10
2023-03-20T21:44:17.670Z,94.25
2023-03-20T21:58:41.318Z,92.97
2023-03-20T22:04:10.534Z,94.93
2023-03-20T22:07:18.681Z,95.38
2023-03-20T22:21:03.832Z,93.70
2023-03-20T22:26:55.149Z,97.47
2023-03-20T22:35:04.313Z,98.75
2023-03-20T22:37:46.626Z,98.32
2023-03-20T22:40:59.378Z,103.07
2023-03-20T22:42:59.552Z,96.55
2023-03-20T22:45:37.846Z,96.10
2023-03-20T22:48:11.448Z,95.35
2023-03-20T22:50:39.445Z,99.25
2023-03-20T22:53:06.263Z,95.82
2023-03-20T22:55:33.392Z,94.22
2023-03-20T22:58:07.468Z,112.00
2023-03-20T23:00:36.271Z,94.60
2023-03-20T23:03:22.305Z,94.53
2023-03-20T23:05:51.570Z,94.05
2023-03-20T23:08:18.413Z,98.60
2023-03-20T23:10:47.835Z,98.65
2023-03-20T23:13:14.983Z,102.00
2023-03-20T23:15:41.707Z,110.15
2023-03-20T23:18:09.745Z,92.75
2023-03-20T23:20:36.743Z,95.20
2023-03-20T23:23:03.606Z,96.15
2023-03-20T23:25:38.884Z,94.80
2023-03-20T23:28:08.314Z,94.20
2023-03-20T23:30:44.215Z,97.05
2023-03-20T23:33:13.137Z,94.25
2023-03-20T23:35:39.837Z,96.53
2023-03-20T23:38:06.520Z,96.50
2023-03-20T23:40:33.249Z,95.30
2023-03-20T23:42:59.888Z,93.88
2023-03-20T23:45:26.631Z,93.55
2023-03-20T23:47:53.315Z,97.13
2023-03-20T23:50:28.886Z,98.60
2023-03-20T23:53:13.086Z,96.05
2023-03-20T23:55:45.967Z,97.85
2023-03-20T23:58:13.488Z,94.10
